createdAt,value
2023-01-19T00:00:35.587Z,21.7
2023-01-19T00:05:58.177Z,21.6
2023-01-19T00:11:21.024Z,21.6
2023-01-19T00:16:45.066Z,21.7
2023-01-19T00:21:53.860Z,21.6
2023-01-19T00:27:01.731Z,21.6
2023-01-19T00:32:24.256Z,21.6
2023-01-19T00:37:47.921Z,21.7
2023-01-19T00:43:09.515Z,21.6
2023-01-19T00:48:32.218Z,21.6
2023-01-19T00:53:55.757Z,21.6
2023-01-19T00:59:18.370Z,21.6
2023-01-19T01:04:56.417Z,21.6
2023-01-19T01:10:03.064Z,21.6
2023-01-19T01:15:59.703Z,21.6
2023-01-19T01:21:23.450Z,21.6
2023-01-19T01:26:49.383Z,21.6
2023-01-19T01:32:11.735Z,21.6
2023-01-19T01:37:56.224Z,21.6
2023-01-19T01:43:18.588Z,21.6
2023-01-19T01:48:25.571Z,21.6
2023-01-19T01:54:02.232Z,21.6
2023-01-19T01:59:24.482Z,21.6
2023-01-19T02:04:33.874Z,21.6
2023-01-19T02:09:57.444Z,21.6
2023-01-19T02:15:20.230Z,21.6
2023-01-19T02:20:41.773Z,21.6
2023-01-19T02:25:49.329Z,21.6
2023-01-19T02:31:12.306Z,21.6
2023-01-19T02:36:35.102Z,21.6
2023-01-19T02:41:58.154Z,21.6
2023-01-19T02:47:20.936Z,21.6
2023-01-19T02:52:43.780Z,21.6
2023-01-19T02:58:06.790Z,21.6
2023-01-19T03:03:30.834Z,21.7
2023-01-19T03:08:36.611Z,21.6
2023-01-19T03:13:43.786Z,21.7
2023-01-19T03:19:08.444Z,21.6
2023-01-19T03:24:30.591Z,21.6
2023-01-19T03:29:53.801Z,21.6
2023-01-19T03:35:16.711Z,21.6
2023-01-19T03:40:38.498Z,21.6
2023-01-19T03:45:46.402Z,21.6
2023-01-19T03:51:09.443Z,21.7
2023-01-19T03:56:31.054Z,21.6
2023-01-19T04:01:54.086Z,21.6
2023-01-19T04:07:17.608Z,21.6
2023-01-19T04:12:39.513Z,21.6
2023-01-19T04:18:02.410Z,21.6
2023-01-19T04:23:25.907Z,21.6
2023-01-19T04:28:48.601Z,21.6
2023-01-19T04:34:11.959Z,21.6
2023-01-19T04:39:21.521Z,21.6
2023-01-19T04:44:44.095Z,21.6
2023-01-19T04:49:53.230Z,21.6
2023-01-19T04:55:01.149Z,21.6
2023-01-19T05:00:23.584Z,21.6
2023-01-19T05:05:47.015Z,21.6
2023-01-19T05:10:53.767Z,21.6
2023-01-19T05:16:15.907Z,21.6
2023-01-19T05:21:25.884Z,21.6
2023-01-19T05:26:33.401Z,21.6
2023-01-19T05:31:41.527Z,21.6
2023-01-19T05:37:17.342Z,21.6
2023-01-19T05:42:51.910Z,21.6
2023-01-19T05:48:14.444Z,21.6
2023-01-19T05:53:37.625Z,21.6
2023-01-19T05:59:00.150Z,21.6
2023-01-19T06:04:23.700Z,21.6
2023-01-19T06:09:49.485Z,21.6
2023-01-19T06:14:56.157Z,21.6
2023-01-19T06:20:19.307Z,21.6
2023-01-19T06:25:43.969Z,21.6
2023-01-19T06:31:06.274Z,21.6
2023-01-19T06:36:29.663Z,21.6
2023-01-19T06:41:52.223Z,21.6
2023-01-19T06:47:14.846Z,21.6
2023-01-19T06:52:22.645Z,21.6
2023-01-19T06:57:51.536Z,21.6
2023-01-19T07:03:39.704Z,21.6
2023-01-19T07:09:01.468Z,21.6
2023-01-19T07:15:26.176Z,21.6
2023-01-19T07:20:49.629Z,21.6
2023-01-19T07:26:11.875Z,21.6
2023-01-19T07:31:35.403Z,21.6
2023-01-19T07:36:58.495Z,21.6
2023-01-19T07:42:21.209Z,21.6
2023-01-19T07:47:44.057Z,21.6
2023-01-19T07:53:06.715Z,21.6
2023-01-19T07:58:28.868Z,21.6
2023-01-19T08:03:53.364Z,21.6
2023-01-19T08:09:16.733Z,21.6
2023-01-19T08:14:23.726Z,21.6
2023-01-19T08:19:46.714Z,21.6
2023-01-19T08:25:12.043Z,21.5
2023-01-19T08:30:34.668Z,21.8
2023-01-19T08:35:55.282Z,21.6
2023-01-19T08:41:18.066Z,21.5
2023-01-19T08:46:49.364Z,21.6
2023-01-19T08:52:12.247Z,21.6
2023-01-19T08:57:35.393Z,21.6
2023-01-19T09:02:53.781Z,21.5
2023-01-19T09:08:02.171Z,21.6
2023-01-19T09:13:25.066Z,21.6
2023-01-19T09:18:48.362Z,21.6
2023-01-19T09:24:11.077Z,21.6
2023-01-19T09:29:33.757Z,21.6
2023-01-19T09:34:57.078Z,21.6
2023-01-19T09:40:21.001Z,21.5
2023-01-19T09:45:43.820Z,21.6
2023-01-19T09:51:06.643Z,21.6
2023-01-19T09:56:29.760Z,21.6
2023-01-19T10:01:56.248Z,21.6
2023-01-19T10:07:18.547Z,21.6
2023-01-19T10:12:52.913Z,21.6
2023-01-19T10:18:15.757Z,21.5
2023-01-19T10:23:26.436Z,21.5
2023-01-19T10:28:48.999Z,21.6
2023-01-19T10:34:13.864Z,21.5
2023-01-19T10:39:38.682Z,21.5
2023-01-19T10:44:46.501Z,21.5
2023-01-19T10:50:09.627Z,21.5
2023-01-19T10:55:16.925Z,21.6
2023-01-19T11:00:08.603Z,21.5
2023-01-19T11:05:17.555Z,21.5
2023-01-19T11:10:24.521Z,21.5
2023-01-19T11:15:46.668Z,21.5
2023-01-19T11:21:09.209Z,21.5
2023-01-19T11:26:31.672Z,21.6
2023-01-19T11:31:55.482Z,21.4
2023-01-19T11:37:18.613Z,21.4
2023-01-19T11:42:40.782Z,21.5
2023-01-19T11:48:02.798Z,21.5
2023-01-19T11:53:11.116Z,21.4
2023-01-19T11:58:17.675Z,21.4
2023-01-19T12:03:10.471Z,21.5
2023-01-19T12:08:17.902Z,21.4
2023-01-19T12:13:40.425Z,21.5
2023-01-19T12:19:03.351Z,21.4
2023-01-19T12:24:30.534Z,21.4
2023-01-19T12:29:53.695Z,21.4
2023-01-19T12:35:03.022Z,21.4
2023-01-19T12:40:26.286Z,21.4
2023-01-19T12:45:49.143Z,21.4
2023-01-19T12:51:16.674Z,21.4
2023-01-19T12:56:41.451Z,21.4
2023-01-19T13:02:04.068Z,21.4
2023-01-19T13:07:26.898Z,21.4
2023-01-19T13:12:55.480Z,21.4
2023-01-19T13:18:17.767Z,21.4
2023-01-19T13:23:40.174Z,21.4
2023-01-19T13:29:02.947Z,21.4
2023-01-19T13:34:26.158Z,21.4
2023-01-19T13:39:49.637Z,21.4
2023-01-19T13:45:12.478Z,21.4
2023-01-19T13:50:24.144Z,21.3
2023-01-19T13:55:48.976Z,21.4
2023-01-19T14:01:12.808Z,21.4
2023-01-19T14:06:37.365Z,21.4
2023-01-19T14:12:00.304Z,21.4
2023-01-19T14:17:32.027Z,21.4
2023-01-19T14:22:56.195Z,21.4
2023-01-19T14:28:19.094Z,21.4
2023-01-19T14:33:41.807Z,21.4
2023-01-19T14:38:49.119Z,21.4
2023-01-19T14:44:12.115Z,21.4
2023-01-19T14:49:35.249Z,21.4
2023-01-19T14:55:12.639Z,21.4
2023-01-19T15:00:38.188Z,21.4
2023-01-19T15:06:12.074Z,21.4
2023-01-19T15:11:34.551Z,21.3
2023-01-19T15:16:41.960Z,21.4
2023-01-19T15:22:05.243Z,21.3
2023-01-19T15:27:12.888Z,21.4
2023-01-19T15:32:20.767Z,21.4
2023-01-19T15:37:29.568Z,21.3
2023-01-19T15:42:21.219Z,21.3
2023-01-19T15:47:13.554Z,21.3
2023-01-19T15:52:20.811Z,21.3
2023-01-19T15:57:13.271Z,21.3
2023-01-19T16:02:36.528Z,21.3
2023-01-19T16:08:02.053Z,21.3
2023-01-19T16:13:25.199Z,21.3
2023-01-19T16:18:49.720Z,21.3
2023-01-19T16:24:26.302Z,21.3
2023-01-19T16:29:49.211Z,21.3
2023-01-19T16:34:56.080Z,21.3
2023-01-19T16:40:05.917Z,21.3
2023-01-19T16:45:31.087Z,21.3
2023-01-19T16:50:52.862Z,21.3
2023-01-19T16:56:15.812Z,21.3
2023-01-19T17:01:24.469Z,21.3
2023-01-19T17:06:46.656Z,21.3
2023-01-19T17:12:09.749Z,21.3
2023-01-19T17:17:32.533Z,21.3
2023-01-19T17:22:39.486Z,21.3
2023-01-19T17:28:02.025Z,21.3
2023-01-19T17:32:54.956Z,21.3
2023-01-19T17:38:02.467Z,21.3
2023-01-19T17:43:09.580Z,21.3
2023-01-19T17:48:00.970Z,21.3
2023-01-19T17:52:55.921Z,21.2
2023-01-19T17:58:02.733Z,21.3
2023-01-19T18:03:27.678Z,21.2
2023-01-19T18:08:51.970Z,21.3
2023-01-19T18:14:01.941Z,21.2
2023-01-19T18:19:26.507Z,21.3
2023-01-19T18:24:51.183Z,21.2
2023-01-19T18:30:00.174Z,21.2
2023-01-19T18:35:25.342Z,21.2
2023-01-19T18:40:51.506Z,21.3
2023-01-19T18:46:16.542Z,21.2
2023-01-19T18:51:50.849Z,21.2
2023-01-19T18:57:26.307Z,21.2
2023-01-19T19:03:06.668Z,21.2
2023-01-19T19:08:47.136Z,21.2
2023-01-19T19:14:06.443Z,21.2
2023-01-19T19:19:27.295Z,21.2
2023-01-19T19:24:45.160Z,21.2
2023-01-19T19:30:06.201Z,21.2
2023-01-19T19:35:27.714Z,21.2
2023-01-19T19:41:08.427Z,21.2
2023-01-19T19:46:51.488Z,21.2
2023-01-19T19:52:25.411Z,21.2
2023-01-19T19:58:03.853Z,21.2
2023-01-19T20:03:28.752Z,21.2
2023-01-19T20:09:09.584Z,21.2
2023-01-19T20:20:16.933Z,21.2
2023-01-19T20:36:26.138Z,21.1
2023-01-19T20:41:38.894Z,21.1
2023-01-19T20:46:51.508Z,21.1
2023-01-19T21:28:11.348Z,21.1
2023-01-19T22:04:15.125Z,21.1
2023-01-19T22:14:31.493Z,21.1
2023-01-19T22:19:38.968Z,21.1
2023-01-19T22:34:46.252Z,21.1
2023-01-19T22:40:09.836Z,21.1
2023-01-19T22:45:33.318Z,21.1
2023-01-19T22:56:05.041Z,21.1
2023-01-19T23:06:36.590Z,21.1
2023-01-19T23:11:59.239Z,21.1
2023-01-19T23:17:06.178Z,21.1
2023-01-19T23:22:13.694Z,21.1
2023-01-19T23:27:21.268Z,21.1
2023-01-19T23:32:44.167Z,21.1
2023-01-19T23:38:06.318Z,21.1
2023-01-19T23:43:28.502Z,21.1
